Gorman-Rupp Co (GRC) Latest Bloomsberg Price


Mffais Ranking #892 Overall / #6 Industry
Industry: Flow Control Equipment

Number of Companies: 58 (Ranking #2188 Overall/#15 Industry)
Inflow: $ 4,954 (K) (Ranking #2215 Overall/#15 Industry)
Outflow: $ -4,371 (K)
Mffais Flow: $ 582 (K) (Ranking #892 Overall/#6 Industry)


Receive a FREE weekly executive review of stocks moving into the top 10, taking the top industy spot or moving up within their industry. Sent directly to your Inbox every Saturday. Sign up today and get last week's review immediately sent to you.

We value and respect your privacy. Please read our Terms and Conditions which states our firm commitment to your privacy. Your email address will not be shared with a third party, nor will it be sold or used for purposes other than subscription for the weekly review.

Owner CPOR Shares Action Qty Chg Invested (K) Total Current Value (K)
Zacks Investment Management 2016-09-30 84,646 Added More 48,861 $ 1,354 $ 2,347
Westwood Holdings Group Inc 2016-09-30 223,233 Added More 19,303 $ 535 $ 6,190
Gotham Asset Management Llc 2016-09-30 18,174 New Holding 18,174 $ 503 $ 503
Dimensional Fund Advisors Lp 2016-09-30 781,245 Added More 16,858 $ 467 $ 21,663
Wcm Investment Management Ca 2016-09-30 14,302 New Holding 14,302 $ 396 $ 396
Northern Trust Corp 2016-09-30 245,099 Added More 13,727 $ 380 $ 6,796
Keybank National Association Oh 2016-09-30 339,307 Added More 12,935 $ 358 $ 9,408
Sg Americas Securities Llc 2016-09-30 8,549 New Holding 8,549 $ 237 $ 237
First Quadrant L P Ca 2016-09-30 7,988 New Holding 7,988 $ 221 $ 221
Guggenheim Capital Llc 2016-09-30 61,997 Added More 5,095 $ 141 $ 1,719
Us Bancorp De 2016-09-30 144,615 Added More 4,125 $ 114 $ 4,010
Acrospire Investment Management Llc 2016-09-30 4,069 Added More 3,621 $ 100 $ 112
Teachers Advisors Inc 2016-09-30 32,410 Added More 2,280 $ 63 $ 898
Cutler Group Lp 2016-09-30 1,000 New Holding 1,000 $ 27 $ 27
Park National Corp Oh 2016-09-30 101,962 Added More 598 $ 16 $ 2,827
Rhumbline Advisers 2016-09-30 24,271 Added More 450 $ 12 $ 673
Blackrock Inc 2016-09-30 9,438 Added More 409 $ 11 $ 261
California State Teachers Retirement System 2016-09-30 37,251 Added More 300 $ 8 $ 1,032
Manchester Capital Management Llc 2016-09-30 22,624 Added More 50 $ 1 $ 627
Denali Advisors Llc 2016-09-30 30 New Holding 30 $ 0 $ 0
American International Group Inc 2016-09-30 10,159 Added More 15 $ 0 $ 281
Ladenburg Thalmann Financial Services Inc 2016-09-30 2,895 Added More 6 $ 0 $ 80
Finemark National Bank Trust 2016-09-30 3,050 No Change 0 $ 0 $ 84
M T Bank Corp 2016-09-30 107,000 No Change 0 $ 0 $ 2,967
First Manhattan Co 2016-09-30 1,522 No Change 0 $ 0 $ 42
New York State Common Retirement Fund 2016-09-30 19,100 No Change 0 $ 0 $ 529
Hsbc Holdings Plc 2016-09-30 10,682 No Change 0 $ 0 $ 296
Nisa Investment Advisors Llc 2016-09-30 5,775 No Change 0 $ 0 $ 160
Re Advisers Corp 2016-09-30 947,087 No Change 0 $ 0 $ 26,262
Gabelli Funds Llc 2016-09-30 953,000 No Change 0 $ 0 $ 26,426
Nationwide Fund Advisors 2016-09-30 11,875 No Change 0 $ 0 $ 329
Pioneer Investment Management Inc 2016-09-30 1,458,881 No Change 0 $ 0 $ 40,454
Prentiss Smith Co Inc 2016-09-30 6,184 No Change 0 $ 0 $ 171
Teton Advisors Inc 2016-09-30 123,000 No Change 0 $ 0 $ 3,410
United Capital Financial Advisers Llc 2016-09-30 9,375 No Change 0 $ 0 $ 259
Horizon Kinetics Llc 2016-09-30 8,672 No Change 0 $ 0 $ 240
Capwealth Advisors Llc 2016-09-30 2,662 No Change 0 $ 0 $ 73
Lbmc Investment Advisors Llc 2016-09-30 71,116 No Change 0 $ 0 $ 1,972
Spark Investment Management Llc 2016-09-30 16,100 No Change 0 $ 0 $ 446
Swiss National Bank 2016-09-30 31,447 No Change 0 $ 0 $ 872
Advisor Group Inc 2016-09-30 32 No Change 0 $ 0 $ 0
Grace White Inc Ny 2016-09-30 381,841 Sold Some -1 $ -0 $ 10,588
Benjamin F Edwards Company Inc 2016-09-30 55,407 Sold Some -25 $ -0 $ 1,536
Pnc Financial Services Group Inc 2016-09-30 8,795 Sold Some -130 $ -3 $ 243
Blackrock Investment Management Llc 2016-09-30 69,466 Sold Some -174 $ -4 $ 1,926
Springbok Capital Management Llc 2016-09-30 0 Sold All -200 $ -5 $ 0
Tower Research Capital Llc Trc 2016-09-30 12 Sold Some -246 $ -6 $ 0
Walleye Trading Llc 2016-09-30 0 Sold All -700 $ -19 $ 0
Legal General Group Plc 2016-09-30 2,526 Sold Some -1,135 $ -31 $ 70
King Luther Capital Management Corp 2016-09-30 339,740 Sold Some -1,550 $ -42 $ 9,420
Teacher Retirement System Of Texas 2016-09-30 0 Sold All -2,751 $ -76 $ 0
Fruth Investment Management 2016-09-30 74,002 Sold Some -2,854 $ -79 $ 2,052
Champlain Investment Partners Llc 2016-09-30 524,810 Sold Some -8,705 $ -241 $ 14,552
Regions Financial Corp 2016-09-30 0 Sold All -10,957 $ -303 $ 0
Gamco Investors Inc Et Al 2016-09-30 645,209 Sold Some -13,000 $ -360 $ 17,891
Mondrian Investment Partners Ltd 2016-09-30 62,879 Sold Some -21,355 $ -592 $ 1,743
Morgan Dempsey Capital Management Llc 2016-09-30 406,692 Sold Some -28,875 $ -800 $ 11,277
Royce Associates Lp 2016-09-30 671,416 Sold Some -65,000 $ -1,802 $ 18,618